createdAt,value
2019-04-29T00:00:50.936Z,17.02
2019-04-29T00:07:00.478Z,17.55
2019-04-29T00:09:58.228Z,17.45
2019-04-29T00:19:45.816Z,17.30
2019-04-29T00:31:26.735Z,15.20
2019-04-29T00:34:20.457Z,15.35
2019-04-29T00:40:20.660Z,17.50
2019-04-29T00:46:29.517Z,16.90
2019-04-29T00:55:18.759Z,17.55
2019-04-29T00:58:27.412Z,17.37
2019-04-29T01:01:27.440Z,17.27
2019-04-29T01:04:21.136Z,18.20
2019-04-29T01:07:12.295Z,17.80
2019-04-29T01:09:54.593Z,18.50
2019-04-29T01:12:42.936Z,18.23
2019-04-29T01:16:05.565Z,18.12
2019-04-29T01:18:18.802Z,17.17
2019-04-29T01:21:27.025Z,18.42
2019-04-29T01:24:12.860Z,18.45
2019-04-29T01:33:15.314Z,18.20
2019-04-29T01:39:53.569Z,20.97
2019-04-29T01:49:01.625Z,20.75
2019-04-29T01:52:00.143Z,20.80
2019-04-29T01:54:47.859Z,21.52
2019-04-29T01:57:35.198Z,21.57
2019-04-29T02:06:37.026Z,21.25
2019-04-29T02:15:22.465Z,23.80
2019-04-29T02:24:19.438Z,23.50
2019-04-29T02:27:07.135Z,25.17
2019-04-29T02:30:31.483Z,25.25
2019-04-29T02:33:04.211Z,24.67
2019-04-29T02:39:13.117Z,24.75
2019-04-29T02:50:54.292Z,25.40
2019-04-29T02:57:18.745Z,26.02
2019-04-29T03:00:24.454Z,25.48
2019-04-29T03:03:22.840Z,25.17
2019-04-29T03:07:57.702Z,26.75
2019-04-29T03:08:59.745Z,25.20
2019-04-29T03:12:01.629Z,26.82
2019-04-29T03:15:16.100Z,30.77
2019-04-29T03:20:45.232Z,27.73
2019-04-29T03:23:22.119Z,29.48
2019-04-29T03:29:16.035Z,30.37
2019-04-29T03:35:24.680Z,30.90
2019-04-29T03:48:09.128Z,33.73
2019-04-29T03:52:13.739Z,33.95
2019-04-29T03:55:53.106Z,34.73
2019-04-29T04:10:30.670Z,31.90
2019-04-29T04:13:45.582Z,33.98
2019-04-29T04:32:33.763Z,35.48
2019-04-29T04:35:15.263Z,37.88
2019-04-29T04:37:50.380Z,37.23
2019-04-29T04:43:24.397Z,36.60
2019-04-29T04:46:05.486Z,36.70
2019-04-29T04:48:54.074Z,37.55
2019-04-29T04:51:29.977Z,36.58
2019-04-29T04:54:01.089Z,37.15
2019-04-29T04:56:43.605Z,38.35
2019-04-29T05:02:20.180Z,36.88
2019-04-29T05:04:53.853Z,36.55
2019-04-29T05:07:37.295Z,36.28
2019-04-29T05:10:25.032Z,36.23
2019-04-29T05:12:59.940Z,33.83
2019-04-29T05:15:40.455Z,38.98
2019-04-29T05:18:19.904Z,38.17
2019-04-29T05:21:31.294Z,35.38
2019-04-29T05:23:52.942Z,37.65
2019-04-29T05:26:47.117Z,32.98
2019-04-29T05:29:28.568Z,35.25
2019-04-29T05:40:51.550Z,36.00
2019-04-29T05:46:52.323Z,34.70
2019-04-29T05:49:41.633Z,35.35
2019-04-29T05:52:29.997Z,33.65
2019-04-29T05:55:42.155Z,32.08
2019-04-29T06:01:05.656Z,33.25
2019-04-29T06:03:55.186Z,32.23
2019-04-29T06:06:36.951Z,28.42
2019-04-29T06:09:16.857Z,25.40
2019-04-29T06:15:02.399Z,29.05
2019-04-29T06:17:47.439Z,29.95
2019-04-29T06:20:44.716Z,27.40
2019-04-29T06:23:24.635Z,25.82
2019-04-29T06:35:25.261Z,23.83
2019-04-29T06:38:17.726Z,25.45
2019-04-29T06:41:05.456Z,25.43
2019-04-29T06:46:40.982Z,24.50
2019-04-29T06:49:41.115Z,22.80
2019-04-29T06:52:50.132Z,24.98
2019-04-29T06:55:02.991Z,24.63
2019-04-29T06:57:45.373Z,23.95
2019-04-29T07:06:38.811Z,22.87
2019-04-29T07:09:24.430Z,22.00
2019-04-29T07:12:19.239Z,22.00
2019-04-29T07:15:01.941Z,22.00
2019-04-29T07:20:45.021Z,20.57
2019-04-29T07:23:34.185Z,21.30
2019-04-29T07:28:55.630Z,20.25
2019-04-29T07:31:43.048Z,20.35
2019-04-29T07:34:39.634Z,19.90
2019-04-29T07:37:24.963Z,18.95
2019-04-29T07:40:23.950Z,19.70
2019-04-29T07:43:10.926Z,18.85
2019-04-29T07:45:54.550Z,18.15
2019-04-29T07:49:00.348Z,19.30
2019-04-29T07:51:23.993Z,18.10
2019-04-29T08:01:09.494Z,16.62
2019-04-29T08:03:56.765Z,18.02
2019-04-29T08:06:55.167Z,15.98
2019-04-29T08:12:48.923Z,15.32
2019-04-29T08:15:26.324Z,16.17
2019-04-29T08:18:34.876Z,15.00
2019-04-29T08:21:00.037Z,14.60
2019-04-29T08:23:42.417Z,15.68
2019-04-29T08:26:49.322Z,15.45
2019-04-29T08:32:51.053Z,14.13
2019-04-29T08:35:53.176Z,14.50
2019-04-29T08:38:46.229Z,13.68
2019-04-29T08:44:25.417Z,12.80
2019-04-29T08:50:19.340Z,12.45
2019-04-29T08:52:51.317Z,12.35
2019-04-29T08:55:30.998Z,13.07
2019-04-29T08:58:19.667Z,11.60
2019-04-29T09:01:41.609Z,12.65
2019-04-29T09:04:15.366Z,12.20
2019-04-29T09:06:53.700Z,11.73
2019-04-29T09:09:42.790Z,11.95
2019-04-29T09:15:15.672Z,12.37
2019-04-29T09:24:08.269Z,12.23
2019-04-29T09:30:15.308Z,12.82
2019-04-29T09:36:15.202Z,11.83
2019-04-29T09:39:13.700Z,12.00
2019-04-29T09:42:35.281Z,12.58
2019-04-29T09:45:14.594Z,12.90
2019-04-29T09:48:11.300Z,12.47
2019-04-29T09:50:55.285Z,12.28
2019-04-29T09:57:03.142Z,11.70
2019-04-29T10:05:57.170Z,12.23
2019-04-29T10:11:50.011Z,12.53
2019-04-29T10:14:22.566Z,12.78
2019-04-29T10:17:20.670Z,12.80
2019-04-29T10:20:00.568Z,12.63
2019-04-29T10:22:50.253Z,12.03
2019-04-29T10:25:39.252Z,8.50
2019-04-29T10:28:20.049Z,12.82
2019-04-29T10:39:34.631Z,11.65
2019-04-29T10:48:14.691Z,11.73
2019-04-29T10:50:53.898Z,12.13
2019-04-29T10:56:39.444Z,12.10
2019-04-29T10:59:20.206Z,11.28
2019-04-29T11:05:26.120Z,11.57
2019-04-29T11:08:18.293Z,12.35
2019-04-29T11:11:05.231Z,11.65
2019-04-29T11:13:53.149Z,11.35
2019-04-29T11:20:11.015Z,11.33
2019-04-29T11:22:48.138Z,12.50
2019-04-29T11:25:55.745Z,11.30
2019-04-29T11:29:09.632Z,15.05
2019-04-29T11:31:27.357Z,12.35
2019-04-29T11:34:18.464Z,12.15
2019-04-29T11:36:57.120Z,12.23
2019-04-29T11:39:46.187Z,12.33
2019-04-29T11:42:31.903Z,11.75
2019-04-29T11:45:29.687Z,12.82
2019-04-29T11:55:18.507Z,12.73
2019-04-29T11:57:56.900Z,13.05
2019-04-29T12:01:16.405Z,12.73
2019-04-29T12:06:40.510Z,12.18
2019-04-29T12:09:16.319Z,12.05
2019-04-29T12:14:57.181Z,11.75
2019-04-29T12:18:06.978Z,12.28
2019-04-29T12:20:49.514Z,11.78
2019-04-29T12:23:31.086Z,12.45
2019-04-29T12:26:26.764Z,12.53
2019-04-29T12:29:20.643Z,12.10
2019-04-29T12:31:58.286Z,12.47
2019-04-29T12:35:07.963Z,11.78
2019-04-29T12:38:00.644Z,11.20
2019-04-29T12:40:52.058Z,12.37
2019-04-29T12:43:41.678Z,11.75
2019-04-29T12:49:24.349Z,11.75
2019-04-29T12:52:19.000Z,11.88
2019-04-29T12:55:19.235Z,11.83
2019-04-29T12:57:35.261Z,12.18
2019-04-29T13:00:19.146Z,11.78
2019-04-29T13:03:19.664Z,12.75
2019-04-29T13:06:39.742Z,13.62
2019-04-29T13:09:17.664Z,11.50
2019-04-29T13:12:17.719Z,12.07
2019-04-29T13:15:02.906Z,13.18
2019-04-29T13:18:03.164Z,12.25
2019-04-29T13:29:26.245Z,12.23
2019-04-29T13:32:36.574Z,11.70
2019-04-29T13:35:50.425Z,12.78
2019-04-29T13:38:17.715Z,11.80
2019-04-29T13:41:12.777Z,11.77
2019-04-29T13:44:05.322Z,12.10
2019-04-29T13:46:55.232Z,11.60
2019-04-29T13:49:49.868Z,11.15
2019-04-29T13:52:24.372Z,11.78
2019-04-29T13:55:20.014Z,11.83
2019-04-29T13:57:55.985Z,12.40
2019-04-29T14:00:44.817Z,12.63
2019-04-29T14:04:00.898Z,11.95
2019-04-29T14:06:39.927Z,12.43
2019-04-29T14:09:13.961Z,12.88
2019-04-29T14:11:45.987Z,11.70
2019-04-29T14:14:22.751Z,12.07
2019-04-29T14:17:17.402Z,12.18
2019-04-29T14:19:41.037Z,11.83
2019-04-29T14:22:06.673Z,11.60
2019-04-29T14:24:36.987Z,10.93
2019-04-29T14:27:08.767Z,11.43
2019-04-29T14:29:39.013Z,12.53
2019-04-29T14:32:09.574Z,12.30
2019-04-29T14:34:57.756Z,11.30
2019-04-29T14:37:28.157Z,11.70
2019-04-29T14:39:58.349Z,12.25
2019-04-29T14:42:57.538Z,12.10
2019-04-29T14:45:22.159Z,10.88
2019-04-29T14:48:09.942Z,12.25
2019-04-29T14:50:41.365Z,11.83
2019-04-29T14:55:40.960Z,11.85
2019-04-29T14:58:11.713Z,11.25
2019-04-29T15:00:52.602Z,12.25
2019-04-29T15:03:24.330Z,11.33
2019-04-29T15:05:54.365Z,12.20
2019-04-29T15:08:24.761Z,11.88
2019-04-29T15:10:54.976Z,11.57
2019-04-29T15:13:26.011Z,10.75
2019-04-29T15:16:09.662Z,11.53
2019-04-29T15:18:50.061Z,11.50
2019-04-29T15:21:32.627Z,11.25
2019-04-29T15:24:17.760Z,11.65
2019-04-29T15:26:55.052Z,11.50
2019-04-29T15:29:43.824Z,11.33
2019-04-29T15:32:36.224Z,11.28
2019-04-29T15:35:08.425Z,11.20
2019-04-29T15:37:49.285Z,11.33
2019-04-29T15:40:20.769Z,10.67
2019-04-29T15:42:54.496Z,8.80
2019-04-29T15:45:27.998Z,11.15
2019-04-29T15:47:56.532Z,10.95
2019-04-29T15:50:26.637Z,11.00
2019-04-29T15:52:58.809Z,11.12
2019-04-29T15:57:57.844Z,10.53
2019-04-29T16:00:36.690Z,10.60
2019-04-29T16:03:01.393Z,9.50
2019-04-29T16:05:56.049Z,8.53
2019-04-29T16:08:12.771Z,9.75
2019-04-29T16:10:44.637Z,10.55
2019-04-29T16:13:22.496Z,10.40
2019-04-29T16:15:50.453Z,10.18
2019-04-29T16:18:20.576Z,10.65
2019-04-29T16:20:54.683Z,10.35
2019-04-29T16:23:25.403Z,10.72
2019-04-29T16:25:55.445Z,10.00
2019-04-29T16:28:31.574Z,10.15
2019-04-29T16:30:57.386Z,10.18
2019-04-29T16:33:27.558Z,9.88
2019-04-29T16:36:04.718Z,10.00
2019-04-29T16:38:29.619Z,10.35
2019-04-29T16:41:01.195Z,10.65
2019-04-29T16:43:33.266Z,11.03
2019-04-29T16:46:14.155Z,10.53
2019-04-29T16:48:44.271Z,9.83
2019-04-29T16:51:16.696Z,9.70
2019-04-29T16:53:46.270Z,9.95
2019-04-29T16:56:16.632Z,10.13
2019-04-29T16:58:46.996Z,9.80
2019-04-29T17:01:16.878Z,9.33
2019-04-29T17:03:48.343Z,9.93
2019-04-29T17:06:18.736Z,9.65
2019-04-29T17:09:05.230Z,9.85
2019-04-29T17:11:38.759Z,9.48
2019-04-29T17:14:19.178Z,10.20
2019-04-29T17:16:53.725Z,9.70
2019-04-29T17:19:23.932Z,11.83
2019-04-29T17:21:53.897Z,10.65
2019-04-29T17:24:24.033Z,12.20
2019-04-29T17:26:55.740Z,11.12
2019-04-29T17:29:39.847Z,10.53
2019-04-29T17:34:57.946Z,9.68
2019-04-29T17:37:14.947Z,10.23
2019-04-29T17:39:44.933Z,9.48
2019-04-29T17:42:15.074Z,9.50
2019-04-29T17:44:46.332Z,14.00
2019-04-29T17:47:27.303Z,10.53
2019-04-29T17:50:29.564Z,11.33
2019-04-29T17:52:50.071Z,10.43
2019-04-29T17:55:40.839Z,10.15
2019-04-29T17:58:17.114Z,9.40
2019-04-29T18:00:55.596Z,9.35
2019-04-29T18:03:30.302Z,10.90
2019-04-29T18:06:11.439Z,8.53
2019-04-29T18:08:55.332Z,8.50
2019-04-29T18:11:25.416Z,8.83
2019-04-29T18:13:56.948Z,8.68
2019-04-29T18:16:29.880Z,7.90
2019-04-29T18:19:01.980Z,9.08
2019-04-29T18:21:37.173Z,8.15
2019-04-29T18:24:10.231Z,9.93
2019-04-29T18:26:52.714Z,11.03
2019-04-29T18:31:52.667Z,9.80
2019-04-29T18:34:22.670Z,10.08
2019-04-29T18:36:54.586Z,8.40
2019-04-29T18:39:31.364Z,10.85
2019-04-29T18:42:03.355Z,10.08
2019-04-29T18:44:32.472Z,7.72
2019-04-29T18:47:02.543Z,9.05
2019-04-29T18:49:32.522Z,9.25
2019-04-29T18:52:05.686Z,9.70
2019-04-29T18:54:35.761Z,7.55
2019-04-29T18:57:06.059Z,6.40
2019-04-29T18:59:36.810Z,6.60
2019-04-29T19:02:09.353Z,7.50
2019-04-29T19:04:46.815Z,7.15
2019-04-29T19:07:15.487Z,7.95
2019-04-29T19:09:47.192Z,8.68
2019-04-29T19:12:17.187Z,8.85
2019-04-29T19:14:47.814Z,9.13
2019-04-29T19:17:21.577Z,31.00
2019-04-29T19:19:51.037Z,13.98
2019-04-29T19:22:21.180Z,10.75
2019-04-29T19:24:51.178Z,11.93
2019-04-29T19:27:21.438Z,8.28
2019-04-29T19:29:51.531Z,23.12
2019-04-29T19:32:23.069Z,33.95
2019-04-29T19:34:54.980Z,42.93
2019-04-29T19:37:28.374Z,19.05
2019-04-29T19:39:59.588Z,11.43
2019-04-29T19:42:35.544Z,9.50
2019-04-29T19:45:06.265Z,8.48
2019-04-29T19:47:36.191Z,9.03
2019-04-29T19:50:10.500Z,8.88
2019-04-29T19:52:41.056Z,9.93
2019-04-29T19:55:13.903Z,10.80
2019-04-29T19:57:50.165Z,7.75
2019-04-29T20:00:17.697Z,7.33
2019-04-29T20:02:50.453Z,7.72
2019-04-29T20:05:23.818Z,7.55
2019-04-29T20:07:55.907Z,7.35
2019-04-29T20:10:28.428Z,6.70
2019-04-29T20:12:57.724Z,7.25
2019-04-29T20:15:32.387Z,6.70
2019-04-29T20:18:13.693Z,6.78
2019-04-29T20:20:46.262Z,6.92
2019-04-29T20:23:26.185Z,4.90
2019-04-29T20:26:12.813Z,7.25
2019-04-29T20:28:31.655Z,6.05
2019-04-29T20:31:15.371Z,5.67
2019-04-29T20:33:46.968Z,6.70
2019-04-29T20:36:33.095Z,6.17
2019-04-29T20:39:23.288Z,6.33
2019-04-29T20:41:53.279Z,6.25
2019-04-29T20:44:23.385Z,5.58
2019-04-29T20:47:15.714Z,5.92
2019-04-29T20:49:26.648Z,5.33
2019-04-29T20:52:03.722Z,6.17
2019-04-29T20:54:36.281Z,6.12
2019-04-29T20:57:17.449Z,6.10
2019-04-29T20:59:56.564Z,6.72
2019-04-29T21:02:31.244Z,6.62
2019-04-29T21:04:58.707Z,6.35
2019-04-29T21:07:29.089Z,6.22
2019-04-29T21:09:59.868Z,5.70
2019-04-29T21:12:34.765Z,6.08
2019-04-29T21:15:16.369Z,6.03
2019-04-29T21:17:46.623Z,6.53
2019-04-29T21:20:17.340Z,6.45
2019-04-29T21:22:47.569Z,6.25
2019-04-29T21:25:18.990Z,6.67
2019-04-29T21:27:52.587Z,6.03
2019-04-29T21:30:27.249Z,6.97
2019-04-29T21:32:55.798Z,5.90
2019-04-29T21:35:36.562Z,7.12
2019-04-29T21:38:25.987Z,6.95
2019-04-29T21:41:07.666Z,6.33
2019-04-29T21:43:39.513Z,6.40
2019-04-29T21:46:09.752Z,6.90
2019-04-29T21:48:39.818Z,6.30
2019-04-29T21:51:11.119Z,6.08
2019-04-29T21:53:41.934Z,6.58
2019-04-29T21:56:12.484Z,6.25
2019-04-29T21:58:44.096Z,6.70
2019-04-29T22:01:16.971Z,6.40
2019-04-29T22:03:50.846Z,6.33
2019-04-29T22:06:29.007Z,6.70
2019-04-29T22:09:02.665Z,6.35
2019-04-29T22:11:43.578Z,6.62
2019-04-29T22:14:21.972Z,6.58
2019-04-29T22:16:56.907Z,6.70
2019-04-29T22:19:46.041Z,6.62
2019-04-29T22:22:19.697Z,6.50
2019-04-29T22:24:51.366Z,6.90
2019-04-29T22:27:27.254Z,6.50
2019-04-29T22:29:58.389Z,6.72
2019-04-29T22:32:32.563Z,6.90
2019-04-29T22:35:07.398Z,6.40
2019-04-29T22:37:40.942Z,6.95
2019-04-29T22:43:22.198Z,6.35
2019-04-29T22:48:30.223Z,6.35
2019-04-29T22:51:05.740Z,6.60
2019-04-29T22:53:43.913Z,7.10
2019-04-29T22:56:15.801Z,6.30
2019-04-29T22:58:53.700Z,6.58
2019-04-29T23:01:26.761Z,6.35
2019-04-29T23:03:59.354Z,6.55
2019-04-29T23:06:33.292Z,7.10
2019-04-29T23:09:07.664Z,7.33
2019-04-29T23:11:40.810Z,6.40
2019-04-29T23:14:15.255Z,6.42
2019-04-29T23:19:39.952Z,6.97
2019-04-29T23:22:22.242Z,6.28
2019-04-29T23:24:59.206Z,6.00
2019-04-29T23:27:32.749Z,7.08
2019-04-29T23:30:04.412Z,6.35
2019-04-29T23:32:39.473Z,6.67
2019-04-29T23:35:12.657Z,6.37
2019-04-29T23:37:46.801Z,6.60
2019-04-29T23:43:13.133Z,6.90
2019-04-29T23:45:46.135Z,6.35
2019-04-29T23:48:19.983Z,6.90
2019-04-29T23:50:55.858Z,6.55
2019-04-29T23:53:27.258Z,7.28
2019-04-29T23:58:47.198Z,6.62
